createdAt,value
2018-04-07T00:01:42.626Z,99648.66
2018-04-07T00:04:08.973Z,99644.55
2018-04-07T00:06:35.340Z,99643.45
2018-04-07T00:09:01.795Z,99641.52
2018-04-07T00:11:28.163Z,99640.05
2018-04-07T00:13:54.545Z,99642.98
2018-04-07T00:16:20.936Z,99640.73
2018-04-07T00:18:47.290Z,99642.94
2018-04-07T00:21:13.634Z,99647.58
2018-04-07T00:23:40.122Z,99651.72
2018-04-07T00:26:06.477Z,99648.97
2018-04-07T00:28:32.955Z,99651.22
2018-04-07T00:30:59.389Z,99645.54
2018-04-07T00:33:25.749Z,99652.17
2018-04-07T00:35:52.106Z,99651.77
2018-04-07T00:38:18.488Z,99652.11
2018-04-07T00:40:44.854Z,99654.56
2018-04-07T00:43:11.330Z,99649.20
2018-04-07T00:45:37.722Z,99653.14
2018-04-07T00:48:04.101Z,99652.93
2018-04-07T00:50:30.501Z,99658.13
2018-04-07T00:52:57.833Z,99655.77
2018-04-07T00:55:24.202Z,99656.25
2018-04-07T00:57:50.637Z,99652.43
2018-04-07T01:00:17.078Z,99659.97
2018-04-07T01:02:43.441Z,99664.58
2018-04-07T01:05:09.809Z,99668.85
2018-04-07T01:07:37.130Z,99667.22
2018-04-07T01:10:03.542Z,99678.36
2018-04-07T01:12:29.962Z,99678.73
2018-04-07T01:14:56.362Z,99672.80
2018-04-07T01:17:22.797Z,99682.16
2018-04-07T01:19:49.183Z,99681.54
2018-04-07T01:22:15.601Z,99692.34
2018-04-07T01:24:41.962Z,99698.48
2018-04-07T01:27:08.342Z,99708.56
2018-04-07T01:29:34.742Z,99708.55
2018-04-07T01:32:01.121Z,99708.70
2018-04-07T01:34:27.491Z,99708.36
2018-04-07T01:36:53.849Z,99716.76
2018-04-07T01:39:20.251Z,99720.84
2018-04-07T01:41:46.686Z,99720.17
2018-04-07T01:44:13.037Z,99718.98
2018-04-07T01:46:39.465Z,99723.45
2018-04-07T01:49:05.814Z,99722.33
2018-04-07T01:51:32.181Z,99730.17
2018-04-07T01:53:58.589Z,99734.09
2018-04-07T01:56:24.954Z,99736.01
2018-04-07T01:58:51.311Z,99740.47
2018-04-07T02:01:17.684Z,99739.91
2018-04-07T02:03:44.080Z,99745.73
2018-04-07T02:06:10.473Z,99747.53
2018-04-07T02:08:36.865Z,99749.59
2018-04-07T02:11:03.263Z,99749.24
2018-04-07T02:13:29.653Z,99758.62
2018-04-07T02:15:56.061Z,99772.58
2018-04-07T02:18:22.430Z,99768.70
2018-04-07T02:20:48.819Z,99777.91
2018-04-07T02:23:15.197Z,99773.54
2018-04-07T02:25:41.585Z,99781.73
2018-04-07T02:28:07.941Z,99787.05
2018-04-07T02:30:34.462Z,99786.00
2018-04-07T02:33:00.911Z,99791.83
2018-04-07T02:35:27.215Z,99784.74
2018-04-07T02:37:53.598Z,99783.75
2018-04-07T02:40:20.006Z,99794.22
2018-04-07T02:42:46.409Z,99791.41
2018-04-07T02:45:12.807Z,99795.91
2018-04-07T02:47:39.161Z,99797.97
2018-04-07T02:50:05.589Z,99798.53
2018-04-07T02:52:31.945Z,99802.64
2018-04-07T02:54:58.301Z,99799.88
2018-04-07T02:57:24.670Z,99805.67
2018-04-07T02:59:51.051Z,99810.06
2018-04-07T03:02:17.418Z,99811.33
2018-04-07T03:04:43.798Z,99810.61
2018-04-07T03:07:10.205Z,99817.24
2018-04-07T03:09:36.545Z,99820.95
2018-04-07T03:12:02.914Z,99833.02
2018-04-07T03:14:29.332Z,99841.13
2018-04-07T03:16:55.694Z,99850.02
2018-04-07T03:19:22.049Z,99852.24
2018-04-07T03:21:48.433Z,99851.63
2018-04-07T03:24:14.782Z,99855.91
2018-04-07T03:26:41.142Z,99861.89
2018-04-07T03:29:07.553Z,99855.28
2018-04-07T03:31:34.158Z,99852.37
2018-04-07T03:34:00.564Z,99851.88
2018-04-07T03:36:26.934Z,99855.38
2018-04-07T03:38:53.284Z,99859.80
2018-04-07T03:41:19.718Z,99865.03
2018-04-07T03:43:46.065Z,99869.94
2018-04-07T03:46:12.442Z,99882.38
2018-04-07T03:48:38.857Z,99881.55
2018-04-07T03:51:05.312Z,99880.45
2018-04-07T03:53:31.801Z,99883.98
2018-04-07T03:55:58.208Z,99893.42
2018-04-07T03:58:24.578Z,99899.38
2018-04-07T04:00:50.982Z,99902.59
2018-04-07T04:03:17.406Z,99903.53
2018-04-07T04:05:43.822Z,99906.69
2018-04-07T04:08:10.161Z,99908.30
2018-04-07T04:10:36.536Z,99920.64
2018-04-07T04:13:02.942Z,99916.97
2018-04-07T04:15:29.316Z,99926.56
2018-04-07T04:17:55.705Z,99931.83
2018-04-07T04:20:22.062Z,99925.71
2018-04-07T04:22:48.489Z,99922.59
2018-04-07T04:25:14.843Z,99919.09
2018-04-07T04:27:41.254Z,99921.01
2018-04-07T04:30:07.670Z,99910.67
2018-04-07T04:32:34.019Z,99916.71
2018-04-07T04:35:00.373Z,99914.04
2018-04-07T04:37:26.801Z,99914.91
2018-04-07T04:39:53.137Z,99912.45
2018-04-07T04:42:19.485Z,99915.08
2018-04-07T04:44:45.890Z,99921.52
2018-04-07T04:47:12.346Z,99918.79
2018-04-07T04:49:38.711Z,99923.28
2018-04-07T04:52:05.141Z,99927.94
2018-04-07T04:54:31.524Z,99926.98
2018-04-07T04:56:57.886Z,99931.70
2018-04-07T04:59:24.237Z,99930.91
2018-04-07T05:01:50.581Z,99932.73
2018-04-07T05:04:16.981Z,99930.91
2018-04-07T05:06:43.362Z,99935.39
2018-04-07T05:09:09.837Z,99946.32
2018-04-07T05:11:36.194Z,99943.27
2018-04-07T05:14:02.570Z,99941.21
2018-04-07T05:16:29.030Z,99944.53
2018-04-07T05:18:55.399Z,99946.40
2018-04-07T05:21:21.782Z,99949.20
2018-04-07T05:23:48.250Z,99944.32
2018-04-07T05:26:14.630Z,99946.89
2018-04-07T05:28:41.037Z,99948.32
2018-04-07T05:31:07.458Z,99953.18
2018-04-07T05:33:33.822Z,99950.69
2018-04-07T05:36:00.183Z,99945.45
2018-04-07T05:38:26.630Z,99948.70
2018-04-07T05:40:52.987Z,99952.52
2018-04-07T05:43:19.358Z,99959.06
2018-04-07T05:45:45.754Z,99960.80
2018-04-07T05:48:12.145Z,99962.01
2018-04-07T05:50:38.497Z,99954.19
2018-04-07T05:53:04.896Z,99954.57
2018-04-07T05:55:31.246Z,99956.36
2018-04-07T05:57:57.605Z,99950.24
2018-04-07T06:00:23.966Z,99961.01
2018-04-07T06:02:50.314Z,99957.23
2018-04-07T06:05:16.677Z,99971.35
2018-04-07T06:07:43.061Z,99969.63
2018-04-07T06:10:09.418Z,99978.64
2018-04-07T06:12:35.778Z,99982.66
2018-04-07T06:15:02.173Z,99978.68
2018-04-07T06:17:28.525Z,99988.40
2018-04-07T06:19:54.865Z,100000.05
2018-04-07T06:22:21.248Z,100002.02
2018-04-07T06:24:47.629Z,100002.75
2018-04-07T06:27:13.994Z,100017.66
2018-04-07T06:29:40.350Z,100027.34
2018-04-07T06:32:06.706Z,100030.77
2018-04-07T06:34:33.091Z,100035.56
2018-04-07T06:36:59.461Z,100029.78
2018-04-07T06:39:25.825Z,100027.51
2018-04-07T06:41:52.409Z,100025.12
2018-04-07T06:44:18.766Z,100023.36
2018-04-07T06:46:45.138Z,100023.89
2018-04-07T06:49:11.497Z,100023.04
2018-04-07T06:51:37.864Z,100028.99
2018-04-07T06:54:04.221Z,100032.92
2018-04-07T06:56:30.586Z,100040.30
2018-04-07T06:58:56.949Z,100050.06
2018-04-07T07:01:23.302Z,100041.31
2018-04-07T07:03:49.646Z,100049.17
2018-04-07T07:06:16.011Z,100054.09
2018-04-07T07:08:42.682Z,100047.42
2018-04-07T07:11:09.094Z,100047.53
2018-04-07T07:13:35.470Z,100048.27
2018-04-07T07:16:01.835Z,100049.98
2018-04-07T07:18:28.249Z,100045.48
2018-04-07T07:20:54.646Z,100039.34
2018-04-07T07:23:20.985Z,100040.22
2018-04-07T07:25:47.390Z,100034.58
2018-04-07T07:28:13.745Z,100037.66
2018-04-07T07:30:40.254Z,100035.02
2018-04-07T07:33:06.605Z,100034.75
2018-04-07T07:35:32.974Z,100027.17
2018-04-07T07:37:59.337Z,100022.14
2018-04-07T07:40:25.693Z,100016.41
2018-04-07T07:42:52.055Z,100016.19
2018-04-07T07:45:18.446Z,100018.84
2018-04-07T07:47:44.817Z,100010.55
2018-04-07T07:50:11.189Z,100018.58
2018-04-07T07:52:37.524Z,100025.83
2018-04-07T07:55:03.950Z,100025.27
2018-04-07T07:57:30.366Z,100030.56
2018-04-07T07:59:56.744Z,100021.81
2018-04-07T08:02:23.112Z,100033.13
2018-04-07T08:04:49.509Z,100038.41
2018-04-07T08:07:15.883Z,100046.87
2018-04-07T08:09:42.451Z,100037.30
2018-04-07T08:12:08.825Z,100033.45
2018-04-07T08:14:35.201Z,100040.87
2018-04-07T08:17:01.657Z,100047.37
2018-04-07T08:19:28.041Z,100055.00
2018-04-07T08:21:54.394Z,100056.60
2018-04-07T08:24:20.817Z,100063.47
2018-04-07T08:26:47.302Z,100066.89
2018-04-07T08:29:13.654Z,100054.20
2018-04-07T08:31:40.085Z,100043.81
2018-04-07T08:34:06.722Z,100048.26
2018-04-07T08:36:33.157Z,100051.94
2018-04-07T08:38:59.521Z,100054.10
2018-04-07T08:41:25.877Z,100054.34
2018-04-07T08:43:52.517Z,100045.69
2018-04-07T08:46:18.865Z,100046.64
2018-04-07T08:48:45.366Z,100058.67
2018-04-07T08:51:11.717Z,100054.89
2018-04-07T08:53:38.142Z,100044.18
2018-04-07T08:56:04.521Z,100035.28
2018-04-07T08:58:31.198Z,100045.22
2018-04-07T09:00:57.556Z,100036.85
2018-04-07T09:03:23.965Z,100020.63
2018-04-07T09:05:50.333Z,100011.34
2018-04-07T09:08:16.774Z,100016.84
2018-04-07T09:10:43.145Z,100014.09
2018-04-07T09:13:09.533Z,100018.86
2018-04-07T09:15:35.901Z,100014.84
2018-04-07T09:18:02.253Z,100021.77
2018-04-07T09:20:28.613Z,100025.56
2018-04-07T09:22:54.981Z,100015.84
2018-04-07T09:25:21.368Z,100026.02
2018-04-07T09:27:47.749Z,100022.63
2018-04-07T09:30:14.130Z,100013.33
2018-04-07T09:32:40.569Z,100019.70
2018-04-07T09:35:06.921Z,100040.05
2018-04-07T09:37:33.309Z,100033.80
2018-04-07T09:39:59.669Z,100036.87
2018-04-07T09:42:26.033Z,100027.73
2018-04-07T09:44:52.396Z,100029.52
2018-04-07T09:47:18.770Z,100037.42
2018-04-07T09:49:45.133Z,100026.13
2018-04-07T09:52:11.677Z,100025.28
2018-04-07T09:54:38.210Z,100023.78
2018-04-07T09:57:04.602Z,100015.66
2018-04-07T09:59:31.058Z,100028.26
2018-04-07T10:01:58.479Z,100018.18
2018-04-07T10:04:24.932Z,100008.16
2018-04-07T10:06:51.319Z,100018.64
2018-04-07T10:09:17.773Z,100005.48
2018-04-07T10:11:44.237Z,99995.29
2018-04-07T10:14:10.634Z,99994.47
2018-04-07T10:16:37.006Z,100001.40
2018-04-07T10:19:03.412Z,100002.23
2018-04-07T10:21:29.818Z,99994.84
2018-04-07T10:23:56.193Z,100002.27
2018-04-07T10:26:22.602Z,99996.19
2018-04-07T10:28:48.965Z,99995.14
2018-04-07T10:31:15.321Z,99991.75
2018-04-07T10:33:41.731Z,99985.64
2018-04-07T10:36:08.145Z,99987.16
2018-04-07T10:38:34.566Z,99978.14
2018-04-07T10:41:00.938Z,99994.00
2018-04-07T10:43:27.293Z,99980.73
2018-04-07T10:45:53.658Z,99987.17
2018-04-07T10:48:20.025Z,99984.48
2018-04-07T10:50:46.405Z,99977.91
2018-04-07T10:53:12.790Z,99990.56
2018-04-07T10:55:39.449Z,99980.93
2018-04-07T10:58:05.786Z,99968.34
2018-04-07T11:00:32.176Z,99984.05
2018-04-07T11:02:58.528Z,99986.84
2018-04-07T11:05:24.900Z,99979.39
2018-04-07T11:07:51.269Z,99983.55
2018-04-07T11:10:17.621Z,99983.11
2018-04-07T11:12:44.087Z,99993.93
2018-04-07T11:15:10.429Z,99988.86
2018-04-07T11:17:36.849Z,99986.41
2018-04-07T11:20:03.242Z,99974.56
2018-04-07T11:22:29.629Z,99974.22
2018-04-07T11:24:55.981Z,99971.55
2018-04-07T11:27:22.353Z,99969.27
2018-04-07T11:29:48.752Z,99966.02
2018-04-07T11:32:15.134Z,99972.35
2018-04-07T11:34:41.663Z,99957.58
2018-04-07T11:37:08.077Z,99954.05
2018-04-07T11:39:34.450Z,99953.13
2018-04-07T11:42:00.829Z,99957.52
2018-04-07T11:44:27.191Z,99956.52
2018-04-07T11:46:53.665Z,99950.86
2018-04-07T11:49:20.026Z,99950.55
2018-04-07T11:51:46.661Z,99945.53
2018-04-07T11:54:13.040Z,99944.52
2018-04-07T11:56:39.518Z,99948.12
2018-04-07T11:59:05.970Z,99946.09
2018-04-07T12:01:32.409Z,99942.47
2018-04-07T12:03:58.826Z,99930.67
2018-04-07T12:06:25.597Z,99933.00
2018-04-07T12:08:51.963Z,99929.85
2018-04-07T12:11:18.349Z,99923.97
2018-04-07T12:13:44.724Z,99929.44
2018-04-07T12:16:11.149Z,99924.52
2018-04-07T12:18:37.507Z,99924.77
2018-04-07T12:21:03.902Z,99933.80
2018-04-07T12:23:30.280Z,99926.59
2018-04-07T12:25:56.690Z,99924.64
2018-04-07T12:28:23.099Z,99927.48
2018-04-07T12:30:49.489Z,99928.19
2018-04-07T12:33:15.837Z,99935.19
2018-04-07T12:35:42.230Z,99926.58
2018-04-07T12:38:08.600Z,99919.23
2018-04-07T12:40:34.970Z,99923.20
2018-04-07T12:43:01.313Z,99916.72
2018-04-07T12:45:27.668Z,99928.98
2018-04-07T12:47:54.043Z,99932.84
2018-04-07T12:50:20.394Z,99935.52
2018-04-07T12:52:46.751Z,99924.89
2018-04-07T12:55:13.110Z,99921.59
2018-04-07T12:57:39.490Z,99925.30
2018-04-07T13:00:05.896Z,99929.61
2018-04-07T13:02:32.289Z,99919.82
2018-04-07T13:04:58.685Z,99918.55
2018-04-07T13:07:25.094Z,99927.27
2018-04-07T13:09:51.627Z,99931.17
2018-04-07T13:12:17.990Z,99922.13
2018-04-07T13:14:44.369Z,99927.16
2018-04-07T13:17:10.821Z,99925.02
2018-04-07T13:19:37.246Z,99926.64
2018-04-07T13:22:03.640Z,99921.22
2018-04-07T13:24:30.169Z,99921.38
2018-04-07T13:26:56.525Z,99914.68
2018-04-07T13:29:22.953Z,99927.12
2018-04-07T13:31:49.317Z,99917.48
2018-04-07T13:34:15.724Z,99921.49
2018-04-07T13:36:42.085Z,99929.19
2018-04-07T13:39:08.581Z,99924.27
2018-04-07T13:41:35.010Z,99926.94
2018-04-07T13:44:01.414Z,99931.02
2018-04-07T13:46:27.765Z,99932.08
2018-04-07T13:48:54.127Z,99923.35
2018-04-07T13:51:20.490Z,99925.87
2018-04-07T13:53:46.847Z,99921.86
2018-04-07T13:56:13.201Z,99919.73
2018-04-07T13:58:39.553Z,99919.52
2018-04-07T14:01:05.998Z,99920.31
2018-04-07T14:03:32.365Z,99918.21
2018-04-07T14:05:58.741Z,99922.77
2018-04-07T14:08:25.106Z,99904.31
2018-04-07T14:10:51.687Z,99916.98
2018-04-07T14:13:18.037Z,99919.88
2018-04-07T14:15:44.405Z,99917.35
2018-04-07T14:18:10.792Z,99926.84
2018-04-07T14:20:37.217Z,99929.25
2018-04-07T14:23:03.566Z,99921.86
2018-04-07T14:25:29.970Z,99921.01
2018-04-07T14:27:56.339Z,99929.25
2018-04-07T14:30:22.722Z,99927.33
2018-04-07T14:32:49.077Z,99927.86
2018-04-07T14:35:15.462Z,99921.92
2018-04-07T14:37:41.843Z,99925.35
2018-04-07T14:40:08.213Z,99921.33
2018-04-07T14:42:34.798Z,99920.27
2018-04-07T14:45:01.150Z,99925.69
2018-04-07T14:47:27.507Z,99920.91
2018-04-07T14:49:54.033Z,99926.05
2018-04-07T14:52:20.416Z,99922.67
2018-04-07T14:54:46.778Z,99920.70
2018-04-07T14:57:13.138Z,99926.91
2018-04-07T14:59:39.638Z,99926.11
2018-04-07T15:02:06.017Z,99930.01
2018-04-07T15:04:32.390Z,99934.13
2018-04-07T15:06:58.746Z,99930.02
2018-04-07T15:09:25.163Z,99934.27
2018-04-07T15:11:51.518Z,99934.53
2018-04-07T15:14:17.874Z,99938.14
2018-04-07T15:16:44.541Z,99936.38
2018-04-07T15:19:10.911Z,99938.00
2018-04-07T15:21:37.242Z,99942.02
2018-04-07T15:24:03.646Z,99939.20
2018-04-07T15:26:29.996Z,99939.84
2018-04-07T15:28:56.384Z,99941.60
2018-04-07T15:31:22.740Z,99940.90
2018-04-07T15:33:49.091Z,99940.59
2018-04-07T15:36:15.423Z,99942.08
2018-04-07T15:38:41.833Z,99949.89
2018-04-07T15:41:08.188Z,99955.23
2018-04-07T15:43:34.530Z,99948.98
2018-04-07T15:46:00.882Z,99953.20
2018-04-07T15:48:27.282Z,99950.53
2018-04-07T15:50:53.837Z,99961.06
2018-04-07T15:53:20.193Z,99953.88
2018-04-07T15:55:46.561Z,99958.58
2018-04-07T15:58:12.996Z,99953.47
2018-04-07T16:00:39.336Z,99957.59
2018-04-07T16:03:05.685Z,99958.19
2018-04-07T16:05:32.070Z,99961.05
2018-04-07T16:07:58.549Z,99959.70
2018-04-07T16:10:24.935Z,99955.75
2018-04-07T16:12:51.346Z,99958.59
2018-04-07T16:15:17.813Z,99955.57
2018-04-07T16:17:44.154Z,99962.94
2018-04-07T16:20:10.713Z,99966.28
2018-04-07T16:22:37.104Z,99962.11
2018-04-07T16:25:03.479Z,99965.91
2018-04-07T16:27:29.833Z,99961.00
2018-04-07T16:29:56.249Z,99963.13
2018-04-07T16:32:22.654Z,99967.31
2018-04-07T16:34:49.045Z,99970.83
2018-04-07T16:37:15.489Z,99972.30
2018-04-07T16:39:41.925Z,99970.37
2018-04-07T16:42:08.302Z,99973.20
2018-04-07T16:44:34.670Z,99971.79
2018-04-07T16:47:01.045Z,99976.08
2018-04-07T16:49:27.381Z,99978.20
2018-04-07T16:51:53.713Z,99980.16
2018-04-07T16:54:20.090Z,99981.66
2018-04-07T16:56:46.429Z,99986.11
2018-04-07T16:59:12.807Z,99993.25
2018-04-07T17:01:39.170Z,99987.98
2018-04-07T17:04:05.526Z,100006.97
2018-04-07T17:06:31.925Z,100010.36
2018-04-07T17:08:58.269Z,100002.59
2018-04-07T17:11:24.597Z,100013.11
2018-04-07T17:13:50.998Z,100010.25
2018-04-07T17:16:17.378Z,100023.98
2018-04-07T17:18:43.730Z,100029.94
2018-04-07T17:21:10.153Z,100029.75
2018-04-07T17:23:36.543Z,100033.94
2018-04-07T17:26:03.039Z,100044.61
2018-04-07T17:28:29.401Z,100039.48
2018-04-07T17:30:55.785Z,100042.34
2018-04-07T17:33:22.286Z,100054.31
2018-04-07T17:35:48.612Z,100059.47
2018-04-07T17:38:14.984Z,100057.32
2018-04-07T17:40:41.385Z,100054.94
2018-04-07T17:43:07.713Z,100054.37
2018-04-07T17:45:34.094Z,100066.36
2018-04-07T17:48:00.549Z,100068.30
2018-04-07T17:50:26.945Z,100072.89
2018-04-07T17:52:53.293Z,100077.17
2018-04-07T17:55:19.646Z,100085.20
2018-04-07T17:57:46.028Z,100084.76
2018-04-07T18:00:12.382Z,100090.63
2018-04-07T18:02:38.742Z,100089.27
2018-04-07T18:05:05.200Z,100093.02
2018-04-07T18:07:31.850Z,100107.95
2018-04-07T18:09:58.182Z,100099.58
2018-04-07T18:12:24.510Z,100107.61
2018-04-07T18:14:50.934Z,100117.55
2018-04-07T18:17:17.266Z,100120.53
2018-04-07T18:19:43.595Z,100118.67
2018-04-07T18:22:10.222Z,100114.63
2018-04-07T18:24:36.553Z,100122.17
2018-04-07T18:27:02.882Z,100129.95
2018-04-07T18:29:29.255Z,100131.08
2018-04-07T18:31:55.598Z,100134.58
2018-04-07T18:34:21.941Z,100142.53
2018-04-07T18:36:48.273Z,100140.24
2018-04-07T18:39:14.606Z,100146.98
2018-04-07T18:41:40.966Z,100149.34
2018-04-07T18:44:07.386Z,100153.06
2018-04-07T18:46:33.718Z,100167.29
2018-04-07T18:49:00.121Z,100178.18
2018-04-07T18:51:26.532Z,100176.67
2018-04-07T18:53:52.896Z,100181.06
2018-04-07T18:56:19.234Z,100184.28
2018-04-07T18:58:45.666Z,100186.13
2018-04-07T19:01:12.097Z,100193.34
2018-04-07T19:03:38.417Z,100198.67
2018-04-07T19:06:04.829Z,100200.86
2018-04-07T19:08:31.221Z,100200.34
2018-04-07T19:10:57.609Z,100197.72
2018-04-07T19:13:23.982Z,100203.95
2018-04-07T19:15:50.334Z,100197.55
2018-04-07T19:18:16.666Z,100205.63
2018-04-07T19:20:43.081Z,100202.02
2018-04-07T19:23:09.416Z,100196.61
2018-04-07T19:25:35.747Z,100196.53
2018-04-07T19:28:02.177Z,100194.17
2018-04-07T19:30:28.574Z,100194.84
2018-04-07T19:32:54.993Z,100194.03
2018-04-07T19:35:21.406Z,100197.72
2018-04-07T19:37:47.782Z,100194.38
2018-04-07T19:40:14.262Z,100192.95
2018-04-07T19:42:40.625Z,100207.36
2018-04-07T19:45:06.954Z,100201.04
2018-04-07T19:47:33.307Z,100202.87
2018-04-07T19:49:59.662Z,100204.55
2018-04-07T19:52:26.042Z,100205.02
2018-04-07T19:54:52.462Z,100215.41
2018-04-07T19:57:18.822Z,100214.61
2018-04-07T19:59:45.189Z,100212.52
2018-04-07T20:02:11.529Z,100220.63
2018-04-07T20:04:37.909Z,100219.23
2018-04-07T20:07:04.246Z,100221.12
2018-04-07T20:09:30.578Z,100222.67
2018-04-07T20:11:56.945Z,100231.14
2018-04-07T20:14:23.278Z,100227.83
2018-04-07T20:16:49.669Z,100231.98
2018-04-07T20:19:16.107Z,100235.03
2018-04-07T20:21:42.434Z,100239.23
2018-04-07T20:24:08.761Z,100240.67
2018-04-07T20:26:35.139Z,100235.14
2018-04-07T20:29:01.474Z,100240.46
2018-04-07T20:31:27.825Z,100239.56
2018-04-07T20:33:54.206Z,100243.13
2018-04-07T20:36:20.543Z,100235.81
2018-04-07T20:38:46.898Z,100232.33
2018-04-07T20:41:13.277Z,100239.06
2018-04-07T20:43:39.609Z,100234.74
2018-04-07T20:46:05.948Z,100235.48
2018-04-07T20:48:32.325Z,100236.56
2018-04-07T20:50:58.654Z,100238.41
2018-04-07T20:53:25.085Z,100236.75
2018-04-07T20:55:51.578Z,100236.13
2018-04-07T20:58:18.240Z,100232.57
2018-04-07T21:00:44.754Z,100228.59
2018-04-07T21:03:11.138Z,100234.38
2018-04-07T21:05:37.521Z,100226.44
2018-04-07T21:08:03.902Z,100238.48
2018-04-07T21:10:30.229Z,100234.11
2018-04-07T21:12:56.621Z,100233.64
2018-04-07T21:15:22.969Z,100224.52
2018-04-07T21:17:49.366Z,100216.70
2018-04-07T21:20:15.861Z,100218.33
2018-04-07T21:22:42.252Z,100216.26
2018-04-07T21:25:08.593Z,100218.75
2018-04-07T21:27:35.005Z,100212.85
2018-04-07T21:30:01.385Z,100214.66
2018-04-07T21:32:27.765Z,100214.45
2018-04-07T21:34:54.153Z,100210.08
2018-04-07T21:37:20.477Z,100214.22
2018-04-07T21:39:46.810Z,100214.39
2018-04-07T21:42:13.178Z,100219.23
2018-04-07T21:44:39.534Z,100226.55
2018-04-07T21:47:05.873Z,100226.13
2018-04-07T21:49:32.265Z,100222.33
2018-04-07T21:51:58.613Z,100231.88
2018-04-07T21:54:24.958Z,100229.80
2018-04-07T21:56:51.477Z,100234.19
2018-04-07T21:59:17.822Z,100231.46
2018-04-07T22:01:44.177Z,100227.97
2018-04-07T22:04:10.574Z,100233.84
2018-04-07T22:06:36.946Z,100237.77
2018-04-07T22:09:03.389Z,100241.72
2018-04-07T22:11:29.836Z,100243.08
2018-04-07T22:13:56.205Z,100239.09
2018-04-07T22:16:22.545Z,100235.09
2018-04-07T22:18:48.929Z,100229.64
2018-04-07T22:21:15.358Z,100233.37
2018-04-07T22:23:41.758Z,100225.80
2018-04-07T22:26:08.158Z,100226.13
2018-04-07T22:28:34.552Z,100227.59
2018-04-07T22:31:01.071Z,100224.02
2018-04-07T22:33:27.472Z,100230.40
2018-04-07T22:35:53.893Z,100225.95
2018-04-07T22:38:20.298Z,100229.74
2018-04-07T22:40:46.644Z,100226.63
2018-04-07T22:43:13.052Z,100222.63
2018-04-07T22:45:39.409Z,100215.86
2018-04-07T22:48:05.754Z,100213.81
2018-04-07T22:50:32.118Z,100213.67
2018-04-07T23:00:58.982Z,100214.59
2018-04-07T23:03:25.426Z,100214.64
2018-04-07T23:05:51.813Z,100208.11
2018-04-07T23:08:18.197Z,100213.30
2018-04-07T23:10:44.577Z,100210.88
2018-04-07T23:13:10.963Z,100211.56
2018-04-07T23:15:37.348Z,100217.13
2018-04-07T23:18:03.712Z,100205.78
2018-04-07T23:20:30.038Z,100203.73
2018-04-07T23:22:56.422Z,100202.25
2018-04-07T23:25:22.778Z,100200.63
2018-04-07T23:27:49.133Z,100197.20
2018-04-07T23:30:15.533Z,100199.02
2018-04-07T23:32:41.925Z,100195.65
2018-04-07T23:35:08.258Z,100195.06
2018-04-07T23:37:34.651Z,100191.62
2018-04-07T23:40:01.010Z,100192.42
2018-04-07T23:42:27.438Z,100188.55
2018-04-07T23:44:53.826Z,100186.80
2018-04-07T23:47:20.286Z,100175.87
2018-04-07T23:49:46.614Z,100171.08
2018-04-07T23:52:13.021Z,100165.30
2018-04-07T23:54:39.362Z,100160.00
2018-04-07T23:57:05.722Z,100167.63
2018-04-07T23:59:32.092Z,100173.88
